Time;durP1;ratioP1;P1;durP2;ratioP2;P2;SDS_P1;SDS_P2;PMS_P1;PMS_P2;Temp;Humidity;BMP_temperature;BMP_pressure;BME280_temperature;BME280_humidity;BME280_pressure;Samples;Min_cycle;Max_cycle;Signal;HPM_P1;HPM_P2
2022/02/10 00:04:55;;;;;;;28.00;12.30;;;;;2.50;98510.20;;;;110609;1251;41150;-64
2022/02/10 00:07:49;;;;;;;28.70;13.30;;;;;2.60;98518.00;;;;110726;1251;42010;-62
2022/02/10 00:13:37;;;;;;;26.70;12.40;;;;;2.60;98508.40;;;;110657;1251;41482;-64
2022/02/10 00:16:22;;;;;;;22.30;11.30;;;;;2.60;98500.40;;;;110710;1252;41139;-65
2022/02/10 00:35:31;;;;;;;32.80;13.90;;;;;2.70;98502.60;;;;110736;1253;42458;-62
2022/02/10 00:38:01;;;;;;;25.70;13.40;;;;;2.70;98507.20;;;;110606;1253;41401;-65
2022/02/10 00:40:35;;;;;;;27.40;14.50;;;;;2.70;98503.40;;;;110509;1253;41933;-61
2022/02/10 00:43:05;;;;;;;26.80;12.50;;;;;2.60;98501.00;;;;110452;1254;42111;-62
2022/02/10 00:45:37;;;;;;;25.70;13.30;;;;;2.60;98495.80;;;;110399;1253;41280;-59
2022/02/10 00:48:10;;;;;;;26.50;12.30;;;;;2.58;98501.40;;;;110455;1253;41627;-59
2022/02/10 00:50:43;;;;;;;25.50;12.60;;;;;2.58;98495.40;;;;110434;1254;41154;-60
2022/02/10 00:55:47;;;;;;;23.00;12.50;;;;;2.60;98492.60;;;;110456;1253;41282;-60
2022/02/10 00:58:22;;;;;;;21.50;11.10;;;;;2.60;98489.60;;;;110601;1252;42485;-61
2022/02/10 01:12:26;;;;;;;22.20;10.50;;;;;2.62;98488.00;;;;110470;1253;41273;-61
2022/02/10 01:32:04;;;;;;;30.50;15.50;;;;;2.50;98466.60;;;;110548;1253;41267;-64
2022/02/10 01:34:37;;;;;;;32.40;16.50;;;;;2.40;98466.20;;;;110622;1252;41264;-62
2022/02/10 01:37:07;;;;;;;33.40;14.90;;;;;2.30;98456.00;;;;110571;1253;41960;-64
2022/02/10 01:39:44;;;;;;;30.10;15.20;;;;;2.20;98459.80;;;;110504;1253;41853;-64
2022/02/10 01:43:01;;;;;;;30.30;14.60;;;;;2.14;98464.00;;;;110637;1251;41165;-63
2022/02/10 02:04:49;;;;;;;27.20;12.50;;;;;1.62;98476.20;;;;110641;1253;41219;-63
2022/02/10 02:07:27;;;;;;;44.60;21.80;;;;;1.70;98471.40;;;;110538;1254;41256;-64
2022/02/10 02:09:57;;;;;;;41.60;20.30;;;;;1.70;98471.60;;;;110560;1253;41246;-60
2022/02/10 02:12:27;;;;;;;41.70;19.10;;;;;1.70;98473.60;;;;110535;1253;41951;-59
2022/02/10 02:14:57;;;;;;;36.00;17.50;;;;;1.70;98465.60;;;;110574;1252;42563;-60
2022/02/10 02:17:28;;;;;;;35.40;17.90;;;;;1.80;98467.80;;;;110700;1252;41884;-61
2022/02/10 02:19:58;;;;;;;31.10;16.70;;;;;1.80;98471.80;;;;110759;1253;41138;-59
2022/02/10 02:22:28;;;;;;;33.60;16.40;;;;;1.80;98464.20;;;;110485;1253;41145;-58
2022/02/10 02:24:58;;;;;;;33.60;15.20;;;;;1.86;98464.80;;;;110571;1252;42527;-60
2022/02/10 02:27:43;;;;;;;36.30;16.70;;;;;1.90;98467.40;;;;110507;1255;41721;-58
2022/02/10 02:30:39;;;;;;;29.20;15.00;;;;;1.94;98467.20;;;;110558;1253;41296;-59
2022/02/10 02:33:37;;;;;;;33.30;15.20;;;;;2.00;98475.80;;;;110631;1253;41159;-60
2022/02/10 03:07:02;;;;;;;25.00;11.50;;;;;2.50;98449.60;;;;110643;1251;41150;-57
2022/02/10 03:09:40;;;;;;;22.70;11.70;;;;;2.50;98453.40;;;;110601;1252;41262;-58
2022/02/10 03:12:12;;;;;;;21.90;10.80;;;;;2.50;98446.40;;;;110520;1253;41258;-59
2022/02/10 03:14:47;;;;;;;22.10;10.80;;;;;2.52;98446.00;;;;110597;1253;41763;-58
2022/02/10 03:17:40;;;;;;;20.90;10.10;;;;;2.60;98446.20;;;;110577;1253;41156;-60
2022/02/10 03:20:34;;;;;;;22.70;10.20;;;;;2.64;98455.60;;;;110627;1253;41158;-59
2022/02/10 04:05:47;;;;;;;22.90;12.80;;;;;2.90;98430.60;;;;110617;1254;41906;-59
2022/02/10 04:08:26;;;;;;;25.40;12.50;;;;;2.90;98428.00;;;;110506;1253;41149;-62
2022/02/10 04:13:58;;;;;;;21.20;10.40;;;;;3.00;98427.20;;;;110397;1253;41795;-65
2022/02/10 04:16:34;;;;;;;21.50;9.80;;;;;3.00;98428.00;;;;110551;1253;42375;-59
2022/02/10 04:21:48;;;;;;;20.80;10.50;;;;;3.00;98426.60;;;;110567;1253;41505;-64
2022/02/10 04:32:15;;;;;;;29.10;14.80;;;;;3.00;98427.60;;;;110495;1253;41199;-64
2022/02/10 04:56:53;;;;;;;26.60;13.20;;;;;3.00;98432.60;;;;110533;1253;41649;-61
2022/02/10 05:14:04;;;;;;;22.90;11.70;;;;;3.10;98445.20;;;;110504;1253;41218;-58
2022/02/10 05:34:09;;;;;;;22.40;11.90;;;;;3.00;98458.20;;;;110554;1254;41181;-59
2022/02/10 05:36:40;;;;;;;23.10;11.00;;;;;3.00;98456.40;;;;110686;1252;41261;-59
2022/02/10 05:39:15;;;;;;;20.50;11.10;;;;;3.00;98458.00;;;;110578;1253;42105;-65
2022/02/10 05:55:32;;;;;;;21.80;11.50;;;;;3.00;98452.40;;;;110413;1254;41139;-63
2022/02/10 05:58:10;;;;;;;22.40;11.70;;;;;3.00;98450.80;;;;110490;1254;41670;-59
2022/02/10 06:47:00;;;;;;;32.90;17.30;;;;;3.40;98434.80;;;;110429;1252;41270;-59
2022/02/10 07:04:44;;;;;;;37.10;18.70;;;;;3.90;98423.40;;;;110716;1253;42370;-63
2022/02/10 07:47:13;;;;;;;45.70;23.10;;;;;5.72;98390.40;;;;110716;1252;41608;-59
2022/02/10 07:52:26;;;;;;;40.80;21.20;;;;;6.10;98392.60;;;;110495;1253;41591;-66
2022/02/10 08:54:10;;;;;;;16.60;9.70;;;;;16.46;98358.80;;;;110475;1254;41506;-63
2022/02/10 09:02:06;;;;;;;11.60;5.60;;;;;22.20;98330.80;;;;110632;1253;42412;-64
2022/02/10 09:04:52;;;;;;;13.00;6.00;;;;;23.56;98319.40;;;;110751;1252;41382;-60
2022/02/10 09:07:53;;;;;;;11.20;5.00;;;;;24.52;98319.20;;;;110870;1251;41158;-68
2022/02/10 10:02:22;;;;;;;9.50;4.10;;;;;35.70;98280.00;;;;110591;1254;41252;-66
2022/02/10 10:05:00;;;;;;;11.10;4.50;;;;;35.98;98276.00;;;;110608;1253;41344;-59
2022/02/10 10:16:03;;;;;;;8.60;3.20;;;;;36.92;98266.40;;;;110625;1254;41691;-59
2022/02/10 10:21:26;;;;;;;8.50;3.80;;;;;38.00;98253.20;;;;110593;1253;41258;-60
2022/02/10 10:50:19;;;;;;;7.40;3.20;;;;;40.12;98231.80;;;;110357;1254;41272;-66
2022/02/10 10:53:02;;;;;;;7.40;3.00;;;;;40.50;98231.00;;;;110596;1253;41198;-65
2022/02/10 10:58:11;;;;;;;7.50;3.00;;;;;41.68;98221.00;;;;110619;1254;41226;-63
2022/02/10 11:41:05;;;;;;;7.10;2.90;;;;;43.60;98170.40;;;;110477;1254;41161;-62
2022/02/10 12:40:07;;;;;;;6.80;2.80;;;;;44.50;98132.00;;;;110500;1256;41178;-67
2022/02/10 13:23:29;;;;;;;9.40;3.60;;;;;40.70;98107.20;;;;110857;1251;41155;-69
2022/02/10 14:14:24;;;;;;;10.70;3.40;;;;;27.32;98107.80;;;;110369;1254;41156;-62
2022/02/10 14:17:00;;;;;;;8.30;3.50;;;;;26.40;98108.60;;;;110454;1254;41269;-60
2022/02/10 14:22:08;;;;;;;7.90;3.60;;;;;25.44;98106.60;;;;110476;1254;41622;-63
2022/02/10 14:27:27;;;;;;;9.30;3.50;;;;;23.84;98107.00;;;;110721;1251;41157;-61
2022/02/10 14:29:56;;;;;;;8.30;3.60;;;;;23.22;98108.00;;;;110408;1254;41641;-60
2022/02/10 14:32:32;;;;;;;8.60;3.80;;;;;22.66;98100.60;;;;110353;1253;41939;-64
2022/02/10 14:35:16;;;;;;;8.80;3.80;;;;;22.12;98100.00;;;;110411;1254;41156;-71
2022/02/10 16:18:42;;;;;;;12.90;5.50;;;;;9.60;98103.20;;;;110721;1253;41262;-60
2022/02/10 16:21:17;;;;;;;11.10;4.90;;;;;9.42;98102.40;;;;110551;1254;41346;-61
2022/02/10 16:23:49;;;;;;;11.90;4.80;;;;;9.30;98101.20;;;;110743;1251;41957;-62
2022/02/10 16:26:23;;;;;;;12.00;5.00;;;;;9.10;98100.60;;;;110571;1254;41150;-62
2022/02/10 16:28:52;;;;;;;13.70;4.80;;;;;8.96;98093.80;;;;110728;1251;41141;-61
2022/02/10 16:31:23;;;;;;;13.20;5.10;;;;;8.80;98091.80;;;;110709;1251;41263;-60
2022/02/10 16:33:57;;;;;;;12.90;4.40;;;;;8.68;98083.60;;;;110771;1253;41257;-62
2022/02/10 16:36:32;;;;;;;11.00;4.10;;;;;8.50;98080.60;;;;110391;1254;41578;-60
2022/02/10 16:39:08;;;;;;;10.10;4.20;;;;;8.40;98085.20;;;;110570;1254;41667;-59
2022/02/10 16:41:45;;;;;;;10.90;4.60;;;;;8.30;98082.20;;;;110577;1254;41204;-62
2022/02/10 16:44:20;;;;;;;10.20;4.90;;;;;8.20;98082.60;;;;110366;1251;41519;-60
2022/02/10 16:46:55;;;;;;;11.20;4.80;;;;;8.06;98078.20;;;;110498;1251;41210;-62
2022/02/10 16:49:29;;;;;;;10.20;4.00;;;;;7.98;98082.80;;;;110487;1253;41903;-60
2022/02/10 16:52:07;;;;;;;9.40;4.50;;;;;7.90;98075.80;;;;110703;1251;41304;-60
2022/02/10 16:54:44;;;;;;;9.30;4.00;;;;;7.80;98077.60;;;;110644;1253;42374;-60
2022/02/10 17:14:06;;;;;;;10.50;4.40;;;;;7.60;98075.20;;;;110645;1251;41309;-61
2022/02/10 17:25:23;;;;;;;11.30;5.20;;;;;7.30;98064.80;;;;110525;1253;41261;-60
2022/02/10 17:28:00;;;;;;;12.20;4.90;;;;;7.20;98066.00;;;;110656;1251;41151;-63
2022/02/10 17:35:03;;;;;;;13.30;4.90;;;;;7.00;98056.80;;;;110556;1251;41723;-60
2022/02/10 17:37:00;;;;;;;12.40;6.00;;;;;7.00;98061.60;;;;110358;1254;41631;-60
2022/02/10 17:53:00;;;;;;;11.80;4.80;;;;;6.60;98056.20;;;;110779;1253;41563;-65
2022/02/10 17:55:30;;;;;;;16.10;7.00;;;;;6.58;98056.20;;;;110629;1251;41169;-66
2022/02/10 17:57:59;;;;;;;14.40;6.20;;;;;6.50;98047.40;;;;110756;1251;41187;-64
2022/02/10 18:00:28;;;;;;;13.70;5.60;;;;;6.50;98043.00;;;;110761;1250;41207;-65
2022/02/10 18:02:59;;;;;;;15.20;6.10;;;;;6.50;98043.20;;;;110555;1253;42345;-65
2022/02/10 18:08:19;;;;;;;12.60;5.50;;;;;6.40;98042.60;;;;110628;1253;41335;-65
2022/02/10 18:16:11;;;;;;;13.00;4.90;;;;;6.30;98039.80;;;;110448;1251;41791;-66
2022/02/10 18:18:48;;;;;;;11.50;4.40;;;;;6.28;98030.00;;;;110687;1251;41149;-63
2022/02/10 18:26:20;;;;;;;11.20;4.60;;;;;6.20;98030.20;;;;110736;1251;41348;-64
2022/02/10 19:02:36;;;;;;;12.80;6.30;;;;;5.60;98009.80;;;;110751;1251;41850;-64
2022/02/10 19:09:54;;;;;;;15.50;6.70;;;;;5.30;98015.20;;;;110572;1253;41319;-58
2022/02/10 19:12:30;;;;;;;15.00;7.50;;;;;5.20;98022.00;;;;110770;1251;41146;-60
2022/02/10 19:15:11;;;;;;;15.30;7.50;;;;;5.12;98018.60;;;;110607;1251;41158;-59
2022/02/10 19:17:40;;;;;;;14.30;6.50;;;;;5.10;98013.80;;;;110593;1251;41186;-59
2022/02/10 19:20:10;;;;;;;14.70;6.50;;;;;5.08;98009.40;;;;110638;1250;41420;-59
2022/02/10 19:22:41;;;;;;;15.70;6.10;;;;;5.00;98008.00;;;;110766;1251;41152;-61
2022/02/10 19:25:12;;;;;;;13.80;6.00;;;;;4.96;98008.20;;;;110674;1250;41162;-62
2022/02/10 19:27:43;;;;;;;13.50;6.10;;;;;4.90;98005.60;;;;110567;1252;42571;-63
2022/02/10 19:30:12;;;;;;;;;;;;;4.90;97999.40;;;;110368;1254;41164;-62
2022/02/10 19:32:48;;;;;;;15.90;6.50;;;;;4.90;98002.60;;;;110546;1251;41670;-64
2022/02/10 19:35:20;;;;;;;16.30;7.90;;;;;4.82;98002.00;;;;110685;1251;41158;-65
2022/02/10 19:37:55;;;;;;;14.10;7.10;;;;;4.80;98002.40;;;;110575;1253;41605;-63
2022/02/10 19:40:27;;;;;;;15.30;7.30;;;;;4.72;97999.40;;;;110624;1251;41231;-64
2022/02/10 19:42:57;;;;;;;13.50;6.70;;;;;4.70;98000.00;;;;110561;1250;41634;-61
2022/02/10 19:45:26;;;;;;;15.50;6.70;;;;;4.70;98009.40;;;;110537;1253;41768;-63
2022/02/10 19:47:55;;;;;;;16.30;7.70;;;;;4.70;98010.20;;;;110470;1253;41962;-60
2022/02/10 19:50:31;;;;;;;14.30;7.00;;;;;4.60;98002.60;;;;110494;1254;41611;-58
2022/02/10 19:53:06;;;;;;;15.00;7.50;;;;;4.50;97999.40;;;;110612;1252;41152;-59
2022/02/10 19:55:40;;;;;;;15.00;7.00;;;;;4.50;97995.60;;;;110629;1251;41144;-60
2022/02/10 19:58:12;;;;;;;15.20;7.10;;;;;4.50;97999.00;;;;110380;1253;41250;-60
2022/02/10 20:00:45;;;;;;;16.00;7.90;;;;;4.42;97994.60;;;;110614;1251;41263;-63
2022/02/10 20:03:17;;;;;;;19.90;8.80;;;;;4.40;97994.60;;;;110600;1251;41303;-63
2022/02/10 20:05:50;;;;;;;18.60;9.00;;;;;4.30;97995.80;;;;110620;1250;41164;-64
2022/02/10 20:08:22;;;;;;;19.40;10.10;;;;;4.28;97994.60;;;;110468;1253;41152;-63
2022/02/10 20:10:55;;;;;;;19.00;9.60;;;;;4.20;97993.00;;;;110615;1251;42248;-62
2022/02/10 20:13:39;;;;;;;22.00;10.90;;;;;4.10;97989.60;;;;110546;1251;41768;-63
2022/02/10 20:16:09;;;;;;;21.10;10.30;;;;;4.00;97989.40;;;;110458;1253;41364;-64
2022/02/10 20:18:39;;;;;;;22.20;10.90;;;;;4.00;97992.40;;;;110537;1251;41629;-65
2022/02/10 20:21:16;;;;;;;22.20;10.40;;;;;3.90;97989.40;;;;110431;1253;41283;-61
2022/02/10 20:23:46;;;;;;;21.70;10.20;;;;;3.90;97992.60;;;;110549;1251;42123;-63
2022/02/10 20:26:16;;;;;;;23.50;11.30;;;;;3.90;97981.20;;;;110438;1253;41400;-60
2022/02/10 20:28:45;;;;;;;28.50;12.50;;;;;3.90;97985.80;;;;110350;1253;41339;-60
2022/02/10 20:31:15;;;;;;;22.90;11.80;;;;;3.80;97980.20;;;;110513;1253;41363;-58
2022/02/10 20:33:44;;;;;;;25.80;11.90;;;;;3.80;97975.80;;;;110570;1253;41856;-58
2022/02/10 20:36:14;;;;;;;24.20;11.20;;;;;3.72;97973.40;;;;110614;1251;41796;-59
2022/02/10 20:38:47;;;;;;;24.20;11.50;;;;;3.70;97969.80;;;;110643;1251;42387;-65
2022/02/10 20:41:18;;;;;;;27.10;12.60;;;;;3.70;97963.80;;;;110528;1251;41142;-59
2022/02/10 20:43:53;;;;;;;23.40;11.60;;;;;3.70;97960.00;;;;110454;1251;41755;-59
2022/02/10 20:46:25;;;;;;;22.10;10.90;;;;;3.66;97963.20;;;;110734;1250;41253;-60
2022/02/10 20:48:54;;;;;;;25.50;12.40;;;;;3.60;97960.00;;;;110800;1250;41162;-59
2022/02/10 20:51:24;;;;;;;26.40;12.50;;;;;3.50;97961.20;;;;110571;1251;42400;-57
2022/02/10 20:53:53;;;;;;;24.90;12.40;;;;;3.40;97962.20;;;;110589;1251;42552;-59
2022/02/10 20:56:22;;;;;;;22.90;10.80;;;;;3.40;97957.80;;;;110796;1251;41157;-59
2022/02/10 20:58:58;;;;;;;23.10;11.00;;;;;3.30;97951.40;;;;110798;1252;41274;-58
2022/02/10 21:01:28;;;;;;;28.70;12.40;;;;;3.30;97950.60;;;;110700;1250;41182;-59
2022/02/10 21:04:00;;;;;;;23.50;12.00;;;;;3.24;97956.00;;;;110776;1251;41951;-59
2022/02/10 21:09:31;;;;;;;24.40;11.60;;;;;3.10;97954.60;;;;110655;1253;41166;-59
2022/02/10 21:12:01;;;;;;;24.20;10.10;;;;;3.10;97954.60;;;;110810;1251;41144;-60
2022/02/10 21:14:30;;;;;;;22.40;9.70;;;;;3.00;97946.80;;;;110613;1251;41296;-58
2022/02/10 21:17:06;;;;;;;24.00;11.10;;;;;3.00;97947.00;;;;110731;1250;41157;-58
2022/02/10 21:19:38;;;;;;;30.40;14.10;;;;;3.00;97956.20;;;;110800;1253;42137;-59
2022/02/10 21:22:15;;;;;;;38.50;17.90;;;;;2.90;97950.20;;;;110764;1250;41805;-61
2022/02/10 21:24:52;;;;;;;30.70;15.80;;;;;2.80;97951.00;;;;110732;1251;41806;-61
2022/02/10 21:30:03;;;;;;;30.40;13.60;;;;;2.70;97956.60;;;;110686;1250;41155;-64
2022/02/10 21:32:37;;;;;;;27.30;12.50;;;;;2.60;97957.60;;;;110582;1253;41393;-62
2022/02/10 21:35:20;;;;;;;30.30;13.40;;;;;2.58;97953.40;;;;110634;1250;41150;-65
2022/02/10 21:37:56;;;;;;;30.20;14.00;;;;;2.50;97947.40;;;;110636;1251;42132;-63
2022/02/10 21:57:36;;;;;;;26.80;11.90;;;;;2.10;97924.40;;;;110734;1251;42512;-63
2022/02/10 22:11:24;;;;;;;22.60;10.90;;;;;1.90;97914.40;;;;110692;1250;41599;-64
2022/02/10 22:19:09;;;;;;;22.60;9.20;;;;;1.90;97922.60;;;;110744;1251;41337;-59
2022/02/10 22:21:51;;;;;;;17.30;8.40;;;;;1.86;97921.20;;;;110569;1253;41272;-58
2022/02/10 22:24:22;;;;;;;17.40;9.50;;;;;1.86;97926.60;;;;110536;1251;41272;-59
2022/02/10 22:26:53;;;;;;;;;;;;;1.82;97922.40;;;;110779;1250;41156;-58
2022/02/10 22:29:33;;;;;;;;;;;;;1.80;97922.60;;;;110726;1250;41180;-59
2022/02/10 22:34:36;;;;;;;16.10;7.10;;;;;1.80;97930.60;;;;110555;1253;42242;-59
2022/02/10 22:37:09;;;;;;;16.20;7.40;;;;;1.76;97932.40;;;;110631;1251;41133;-62
2022/02/10 22:39:44;;;;;;;16.60;7.10;;;;;1.74;97933.00;;;;110610;1253;42301;-64
2022/02/10 22:42:14;;;;;;;16.10;7.50;;;;;1.70;97928.40;;;;110539;1250;41150;-64
2022/02/10 22:44:44;;;;;;;16.50;7.80;;;;;1.70;97929.00;;;;110712;1250;41270;-66
2022/02/10 22:47:13;;;;;;;23.60;10.40;;;;;1.70;97926.60;;;;110422;1253;41141;-59
2022/02/10 22:49:42;;;;;;;25.10;12.40;;;;;1.70;97933.20;;;;110622;1250;41263;-59
2022/02/10 22:52:13;;;;;;;28.40;13.80;;;;;1.60;97931.80;;;;110644;1253;41278;-60
2022/02/10 22:54:42;;;;;;;24.50;12.10;;;;;1.50;97936.00;;;;110637;1251;41156;-57
2022/02/10 22:57:12;;;;;;;24.40;11.60;;;;;1.42;97937.00;;;;110692;1250;41266;-59
2022/02/10 22:59:41;;;;;;;26.40;12.90;;;;;1.40;97936.60;;;;110530;1253;41542;-59
2022/02/10 23:02:11;;;;;;;25.70;11.40;;;;;1.40;97941.20;;;;110567;1251;41172;-58
2022/02/10 23:04:40;;;;;;;22.10;10.70;;;;;1.40;97935.20;;;;110550;1252;41210;-60
2022/02/10 23:07:10;;;;;;;25.20;11.60;;;;;1.32;97931.80;;;;110710;1250;40816;-64
2022/02/10 23:09:48;;;;;;;22.30;10.50;;;;;1.30;97928.40;;;;110518;1253;41296;-64
2022/02/10 23:12:18;;;;;;;21.20;10.10;;;;;1.30;97935.20;;;;110572;1250;41260;-64
2022/02/10 23:14:47;;;;;;;23.30;10.10;;;;;1.30;97933.60;;;;110783;1250;41156;-59
2022/02/10 23:17:16;;;;;;;18.30;9.10;;;;;1.30;97933.20;;;;110663;1249;41130;-63
2022/02/10 23:19:46;;;;;;;20.40;9.30;;;;;1.30;97933.00;;;;110565;1251;41716;-64
2022/02/10 23:22:16;;;;;;;21.10;9.60;;;;;1.30;97934.00;;;;110503;1253;41167;-58
2022/02/10 23:24:45;;;;;;;22.90;9.20;;;;;1.26;97931.80;;;;110247;1254;42403;-60
2022/02/10 23:27:15;;;;;;;18.80;8.90;;;;;1.20;97936.40;;;;110414;1253;41566;-58
2022/02/10 23:29:44;;;;;;;16.20;8.30;;;;;1.22;97935.80;;;;110517;1253;42382;-58
2022/02/10 23:32:15;;;;;;;21.10;8.90;;;;;1.30;97937.60;;;;110620;1250;41172;-59
2022/02/10 23:34:50;;;;;;;17.30;8.80;;;;;1.30;97935.60;;;;110732;1250;41278;-62
2022/02/10 23:37:22;;;;;;;19.50;9.20;;;;;1.28;97930.80;;;;110495;1253;41359;-64
2022/02/10 23:39:51;;;;;;;25.50;11.40;;;;;1.28;97933.00;;;;110445;1253;42495;-62
2022/02/10 23:42:32;;;;;;;28.60;13.50;;;;;1.20;97937.80;;;;110719;1250;41928;-63
2022/02/10 23:45:12;;;;;;;25.50;12.30;;;;;1.18;97939.60;;;;110650;1251;42372;-63
2022/02/10 23:47:45;;;;;;;24.20;10.70;;;;;1.10;97941.80;;;;110691;1251;42479;-62
2022/02/10 23:50:17;;;;;;;18.90;9.50;;;;;1.00;97941.80;;;;110756;1251;41156;-61
2022/02/10 23:52:51;;;;;;;23.60;10.30;;;;;1.00;97942.00;;;;110628;1250;41276;-61
2022/02/10 23:55:34;;;;;;;22.00;10.00;;;;;1.00;97941.00;;;;110758;1251;41139;-63
